KCOD

Details ICAO KCOD (COD)
Name Yellowstone Rgnl
Region United States
Timezone America/Denver (UTC-6.0)
Plans Departing 23
Arriving 30
Stats Elevation 5,102 ft / 1,555 m (AMSL)
Location 44.520187° -109.023806°
Runways 1
Magnetic Variation 10.707° E
Sunrise 2018-05-22 11:42:53 UTC / 2018-05-22 05:42:53 Local
Sunset 2018-05-23 02:45:33 UTC / 2018-05-22 20:45:33 Local
Advertisement - Login to hide

Runways

ID Width Length Bearing (true) Bearing (mag) Surface Threshold Offset Overrun Length
04 98 ft / 30 m 8,264 ft / 2,519 m 52.19° 41.48° Asphalt 689 ft / 210 m 236 ft / 72 m
22 98 ft / 30 m 8,264 ft / 2,519 m 232.21° 221.50° Asphalt 397 ft / 121 m 203 ft / 62 m

Map

Weather


0- 5 10 15 20 25 30 35+ Temperature / ° C

Clouds and Precipitation
Forecast for 2018-05-22 12:00 UTC. Updated an hour ago

Ground ~20,000 ft ~40,000 ft Winds

METAR

KCOD 220956Z AUTO 19004KT 10SM CLR 08/06 A3003 RMK AO2 SLP152 T00780056

TAF

KCOD 220533Z 2206/2306 VRB04KT P6SM BKN080 FM221200 02008KT P6SM BKN120 FM222100 VRB10G16KT P6SM VCTS BKN050CB BKN080 FM230200 35011KT 5SM TSRA BKN025CB OVC080 AMD LTD TO CLD VIS AND WIND

Frequencies

Recorded 135.07 MHz AWOS 3
Unicom 122.80 MHz CTAF/UNICOM
Warning: Do not use this data for real-world aviation or navigation. No guarantee of current accuracy is given.